Latest Coastal Weather Observations for Carnarvon

IDW60701

Issued at 4:42 am WST Sunday 31 July 2016 (issued every 10 minutes, with the page automatically refreshed every 10 minutes)

About coastal observations | Map of coastal stations | Coastal observations for WA | Marine services | Other Formats
Station Details ID: 006011 Name: CARNARVON AIRPORT Lat: -24.89 Lon: 113.67 Height: 4.0 m
Data from the previous 72 hours. | See also: Recent months at Carnarvon
Date/Time
WST
Temp
°C
Wind Pressure Rain since
9am
mm
Weather Cloud Vis
km
Sea
Height
m
Swell
Dir  Spd
kts
Gust
kts
hPa Trend Height
m
Period
s
Dir
31/04:30am 16.6 S 13 16 1019.6 - 0.0 - - 10 - - - -
31/04:00am 16.6 S 11 16 1019.6 - 0.0 - - 10 - - - -
31/03:30am 16.8 S 10 13 1019.7 - 0.0 - - 10 - - - -
31/03:00am 17.1 SSE 9 12 1019.4 - 0.0 - Mostly clear 10 - - - -
31/02:30am 17.4 S 11 14 1019.5 - 0.0 - Partly cloudy 10 - - - -
31/02:00am 17.8 S 13 17 1019.5 - 0.0 - - 10 - - - -
31/01:30am 18.1 S 14 18 1019.7 - 0.0 - - 10 - - - -
31/01:00am 17.8 S 10 12 1019.6 - 0.0 - - 10 - - - -
31/12:30am 18.3 S 12 15 1019.7 - 0.0 - - 10 - - - -
31/12:00am 18.6 S 13 17 1019.7 - 0.0 - - 10 - - - -
 
Date/Time
WST
Temp
°C
Wind Pressure Rain since
9am
mm
Weather Cloud Vis
km
Sea
Height
m
Swell
Dir  Spd
kts
Gust
kts
hPa Trend Height
m
Period
s
Dir
30/11:30pm 18.9 S 14 19 1019.7 - 0.0 - - 10 - - - -
30/11:00pm 19.1 S 16 19 1019.7 - 0.0 - - 10 - - - -
30/10:30pm 19.4 S 13 19 1019.7 - 0.0 - - 10 - - - -
30/10:00pm 19.7 SSW 13 17 1019.7 - 0.0 - - 10 - - - -
30/09:30pm 19.8 SSW 13 18 1019.8 - 0.0 - - 10 - - - -
30/09:00pm 19.9 SW 13 18 1019.7 - 0.0 - - 10 - - - -
30/08:30pm 19.6 SW 10 13 1019.4 - 0.0 - - 10 - - - -
30/08:00pm 19.6 SW 10 13 1019.1 - 0.0 - - 10 - - - -
30/07:30pm 19.6 SW 9 12 1018.7 - 0.0 - - 10 - - - -
30/07:00pm 19.5 SW 8 10 1018.4 - 0.0 - - 10 - - - -
30/06:30pm 19.8 SW 8 10 1018.2 - 0.0 - - 10 - - - -
30/06:00pm 20.4 SW 8 11 1017.8 - 0.0 - - 10 - - - -
30/05:30pm 21.2 SW 10 13 1017.6 - 0.0 - - 10 - - - -
30/05:00pm 21.5 SW 10 13 1017.3 - 0.0 - - 10 - - - -
30/04:30pm 22.4 SSW 11 14 1017.1 - 0.0 - - 10 - - - -
30/04:00pm 23.3 SSW 11 13 1016.8 - 0.0 - - 10 - - - -
30/03:30pm 23.4 SSW 13 16 1016.8 - 0.0 - - 10 - - - -
30/03:00pm 23.4 SSW 9 12 1016.7 - 0.0 Fine Mostly clear 30 - - - -
30/02:30pm 24.0 SSW 14 18 1017.0 - 0.0 - - 10 - - - -
30/02:00pm 23.3 SSW 11 14 1017.0 - 0.0 - - 10 - - - -
30/01:30pm 22.9 SSW 13 15 1017.3 - 0.0 - - 10 - - - -
30/01:00pm 23.0 SSW 12 15 1017.5 - 0.0 - - 10 - - - -
30/12:30pm 23.5 SSW 10 12 1017.9 - 0.0 - - 10 - - - -
30/12:00pm 22.7 SSW 11 13 1018.3 - 0.0 - - 10 - - - -
30/11:30am 23.3 SSW 10 13 1018.6 - 0.0 - - 10 - - - -
30/11:06am 23.0 SSW 10 12 1019.0 - 0.0 - Partly cloudy 10 - - - -
30/11:00am 23.4 S 9 11 1019.0 - 0.0 - Partly cloudy 10 - - - -
30/10:30am 22.1 SSW 11 13 1019.2 - 0.0 - Partly cloudy 10 - - - -
30/10:27am 22.3 SSW 11 13 1019.3 - 0.0 - Partly cloudy 10 - - - -
30/10:00am 21.7 SSW 7 10 1019.3 - 0.0 - - 10 - - - -
30/09:30am 21.6 SSW 6 7 1019.4 - 0.0 - Partly cloudy 10 - - - -
30/09:25am 21.9 S 6 8 1019.3 - 0.0 - Partly cloudy 10 - - - -
30/09:10am 22.1 SSE 4 7 1019.1 - 0.0 - Partly cloudy 10 - - - -
30/09:00am 22.2 SE 2 4 1019.0 - 0.0 Fine Partly cloudy 22 - - - -
30/08:30am 19.8 NE 2 4 1018.8 - 0.0 - Partly cloudy 10 - - - -
30/08:24am 19.5 NE 4 5 1018.8 - 0.0 - Partly cloudy 10 - - - -
30/08:00am 18.1 NE 1 4 1018.7 - 0.0 - Partly cloudy 10 - - - -
30/07:53am 17.8 NE 3 4 1018.7 - 0.0 - Partly cloudy 10 - - - -
30/07:32am 16.8 NE 4 4 1018.4 - 0.0 - Partly cloudy 7 - - - -
30/07:30am 16.7 NE 3 4 1018.4 - 0.0 - Partly cloudy 7 - - - -
30/07:00am 15.9 NE 4 5 1018.1 - 0.0 - - 6 - - - -
30/06:30am 15.9 S 4 5 1017.9 - 0.0 - Cloudy 6 - - - -
30/06:00am 15.3 SSW 5 5 1018.0 - 0.0 - - 4 - - - -
30/05:30am 15.2 CALM 0 0 1017.9 - 0.0 - - 0.2 - - - -
30/05:00am 15.0 CALM 0 0 1018.0 - 0.0 - Partly cloudy 8 - - - -
30/04:30am 14.9 WSW 1 4 1018.0 - 0.0 - Cloudy 0.4 - - - -
30/04:00am 14.5 CALM 0 0 1018.2 - 0.0 - Partly cloudy 0.1 - - - -
30/03:30am 15.1 CALM 0 0 1018.3 - 0.0 - - 0.4 - - - -
30/03:00am 15.6 CALM 0 0 1018.3 - 0.0 - - 0.7 - - - -
30/02:30am 15.2 CALM 0 0 1018.2 - 0.0 - - 2 - - - -
30/02:00am 15.4 CALM 0 0 1018.4 - 0.0 - - 0.3 - - - -
30/01:30am 15.6 W 2 3 1018.6 - 0.0 - - 0.2 - - - -
30/01:00am 16.3 W 3 4 1018.8 - 0.0 - - 0.7 - - - -
30/12:50am 16.7 W 4 5 1018.9 - 0.0 - - 7 - - - -
30/12:30am 17.0 W 3 4 1019.1 - 0.0 - - 10 - - - -
30/12:00am 17.2 W 5 6 1019.2 - 0.0 - - 10 - - - -
 
Date/Time
WST
Temp
°C
Wind Pressure Rain since
9am
mm
Weather Cloud Vis
km
Sea
Height
m
Swell
Dir  Spd
kts
Gust
kts
hPa Trend Height
m
Period
s
Dir
29/11:30pm 17.9 NNW 4 5 1019.2 - 0.0 - - 10 - - - -
29/11:00pm 17.5 NNW 3 4 1019.4 - 0.0 - - 10 - - - -
29/10:30pm 17.1 NNW 2 3 1019.4 - 0.0 - - 10 - - - -
29/10:00pm 17.4 NNW 2 4 1019.5 - 0.0 - - 10 - - - -
29/09:30pm 18.3 WSW 2 3 1019.6 - 0.0 - - 10 - - - -
29/09:00pm 19.9 WSW 5 5 1019.7 - 0.0 - - 10 - - - -
29/08:30pm 20.2 WSW 5 6 1019.5 - 0.0 - - 10 - - - -
29/08:00pm 20.5 W 5 6 1019.3 - 0.0 - - 10 - - - -
29/07:30pm 20.8 W 6 7 1019.1 - 0.0 - - 10 - - - -
29/07:00pm 21.0 WSW 5 7 1018.7 - 0.0 - - 10 - - - -
29/06:30pm 21.5 W 6 9 1018.2 - 0.0 - - 10 - - - -
29/06:00pm 22.3 WNW 9 11 1017.7 - 0.0 - - 10 - - - -
29/05:30pm 23.2 WNW 10 12 1017.3 - 0.0 - - 10 - - - -
29/05:00pm 24.1 NW 10 13 1017.2 - 0.0 - - 10 - - - -
29/04:30pm 23.8 W 11 14 1017.3 - 0.0 - - 10 - - - -
29/04:00pm 24.2 WSW 9 11 1017.4 - 0.0 - - 10 - - - -
29/03:30pm 24.8 W 12 16 1016.9 - 0.0 - - 10 - - - -
29/03:00pm 25.7 W 11 14 1016.8 - 0.0 Fine Mostly clear 30 - - - -
29/02:30pm 25.3 W 12 14 1016.8 - 0.0 - - 10 - - - -
29/02:00pm 26.9 WNW 10 12 1016.6 - 0.0 - - 10 - - - -
29/01:30pm 26.9 W 9 12 1016.9 - 0.0 - - 10 - - - -
29/01:00pm 28.6 W 8 9 1017.2 - 0.0 - - 10 - - - -
29/12:30pm 28.7 NW 8 10 1017.6 - 0.0 - - 10 - - - -
29/12:00pm 28.3 N 7 10 1017.8 - 0.0 - - 10 - - - -
29/11:30am 27.1 NNW 7 9 1018.5 - 0.0 - - 10 - - - -
29/11:00am 27.3 N 7 10 1018.9 - 0.0 - - 10 - - - -
29/10:30am 25.8 NNW 4 6 1019.3 - 0.0 - - 10 - - - -
29/10:00am 24.9 N 5 7 1019.2 - 0.0 - - 10 - - - -
29/09:30am 23.1 NNE 7 8 1018.9 - 0.0 - - 10 - - - -
29/09:00am 20.8 N 6 7 1018.9 - 0.0 Fine Mostly clear 27 - - - -
29/08:30am 19.0 N 5 7 1019.0 - 0.0 - - 10 - - - -
29/08:00am 17.1 N 7 8 1018.6 - 0.0 - - 10 - - - -
29/07:30am 14.7 NNE 6 7 1018.5 - 0.0 - - 10 - - - -
29/07:00am 13.1 NNE 6 7 1018.2 - 0.0 - - 10 - - - -
29/06:30am 13.7 NE 4 5 1018.1 - 0.0 - - 10 - - - -
29/06:00am 14.5 ENE 7 7 1017.8 - 0.0 - - 10 - - - -
29/05:30am 15.1 ENE 4 5 1017.7 - 0.0 - - 10 - - - -
29/05:00am 14.9 ENE 6 7 1017.3 - 0.0 - - 10 - - - -
29/04:30am 14.9 ENE 6 6 1017.5 - 0.0 - - 10 - - - -
29/04:00am 14.8 ENE 6 7 1017.5 - 0.0 - - 10 - - - -
29/03:30am 15.0 ENE 6 7 1017.5 - 0.0 - - 10 - - - -
29/03:00am 14.6 ENE 7 8 1017.6 - 0.0 - - 10 - - - -
29/02:30am 15.2 ENE 6 7 1017.7 - 0.0 - - 10 - - - -
29/02:00am 15.7 ENE 5 6 1018.0 - 0.0 - - 10 - - - -
29/01:30am 15.7 ENE 6 7 1018.1 - 0.0 - - 10 - - - -
29/01:00am 15.3 ENE 5 6 1018.3 - 0.0 - - 10 - - - -
29/12:30am 14.9 E 4 4 1018.4 - 0.0 - - 10 - - - -
29/12:00am 15.4 E 4 5 1018.7 - 0.0 - - 10 - - - -
 
Date/Time
WST
Temp
°C
Wind Pressure Rain since
9am
mm
Weather Cloud Vis
km
Sea
Height
m
Swell
Dir  Spd
kts
Gust
kts
hPa Trend Height
m
Period
s
Dir
28/11:30pm 16.4 E 4 5 1018.9 - 0.0 - - 10 - - - -
28/11:00pm 16.3 E 6 6 1018.9 - 0.0 - - 10 - - - -
28/10:30pm 16.4 E 4 5 1019.0 - 0.0 - - 10 - - - -
28/10:00pm 16.4 ESE 4 5 1019.1 - 0.0 - - 10 - - - -
28/09:30pm 16.9 ESE 5 5 1019.2 - 0.0 - - 10 - - - -
28/09:00pm 17.3 ESE 5 5 1019.4 - 0.0 - - 10 - - - -
28/08:30pm 17.8 E 5 5 1019.4 - 0.0 - - 10 - - - -
28/08:00pm 18.3 SSE 3 4 1019.2 - 0.0 - - 10 - - - -
28/07:30pm 19.1 SSE 6 7 1019.3 - 0.0 - - 10 - - - -
28/07:00pm 19.3 S 6 7 1019.1 - 0.0 - - 10 - - - -
28/06:30pm 20.1 S 6 7 1018.9 - 0.0 - - 10 - - - -
28/06:00pm 20.3 S 6 7 1018.7 - 0.0 - - 10 - - - -
28/05:30pm 21.3 S 7 9 1018.3 - 0.0 - Partly cloudy 10 - - - -
28/05:00pm 21.2 S 8 10 1018.3 - 0.0 - - 10 - - - -
28/04:30pm 21.9 S 10 13 1018.2 - 0.0 - - 10 - - - -
28/04:00pm 21.7 S 10 13 1018.1 - 0.0 - - 10 - - - -
28/03:30pm 21.8 S 11 15 1018.0 - 0.0 - - 10 - - - -
28/03:00pm 22.5 SSW 11 13 1017.9 - 0.0 Fine Partly cloudy 27 - - - -
28/02:30pm 22.3 SSW 11 13 1018.0 - 0.0 - - 10 - - - -
28/02:00pm 22.6 SSW 10 11 1018.1 - 0.0 - - 10 - - - -
28/01:30pm 22.0 S 12 14 1018.4 - 0.0 - - 10 - - - -
28/01:00pm 20.3 SSW 14 17 1018.7 - 0.0 - - 10 - - - -
28/12:30pm 20.4 SSW 11 14 1018.8 - 0.0 - - 10 - - - -
28/12:00pm 20.3 SSW 8 10 1019.2 - 0.0 - - 10 - - - -
28/11:30am 21.1 SW 5 7 1019.3 - 0.0 - - 10 - - - -
28/11:00am 23.6 N 5 7 1019.5 - 0.0 - - 10 - - - -
28/10:30am 22.0 N 2 5 1019.9 - 0.0 - - 10 - - - -
28/10:00am 21.6 N 4 6 1020.0 - 0.0 - - 10 - - - -
28/09:30am 20.3 NE 5 6 1019.8 - 0.0 - - 10 - - - -
28/09:00am 18.7 NNE 4 6 1020.0 - 0.0 Fine Mostly cloudy 25 - - - -
28/08:30am 15.9 ENE 3 4 1019.7 - 0.0 - - 10 - - - -
28/08:00am 13.8 NE 6 7 1019.6 - 0.0 - - 10 - - - -
28/07:30am 13.1 E 5 6 1019.5 - 0.0 - - 10 - - - -
28/07:00am 11.9 ENE 5 7 1019.2 - 0.0 - - 10 - - - -
28/06:30am 11.6 ENE 6 7 1019.1 - 0.0 - - 10 - - - -
28/06:00am 12.2 ESE 4 5 1019.1 - 0.0 - - 10 - - - -
28/05:30am 12.2 E 3 4 1019.0 - 0.0 - - 10 - - - -
28/05:00am 12.5 ESE 4 5 1019.0 - 0.0 - - 10 - - - -

Other Formats:

Comma delimited format used in spreadsheet applications
http://www.bom.gov.au/fwo/IDW60701/IDW60701.94300.axf

JavaScript Object Notation format (JSON) in row-major order
http://www.bom.gov.au/fwo/IDW60701/IDW60701.94300.json